sensor_id;sensor_type;location;lat;lon;timestamp;P1;durP1;ratioP1;P2;durP2;ratioP2
49241;SDS011;35079;52.704;13.814;2024-02-21T00:02:07;27.30;;;11.57;;
49241;SDS011;35079;52.704;13.814;2024-02-21T00:04:33;26.85;;;10.90;;
49241;SDS011;35079;52.704;13.814;2024-02-21T00:06:59;33.15;;;11.20;;
49241;SDS011;35079;52.704;13.814;2024-02-21T00:09:25;34.20;;;11.18;;
49241;SDS011;35079;52.704;13.814;2024-02-21T00:11:51;29.27;;;12.25;;
49241;SDS011;35079;52.704;13.814;2024-02-21T00:14:16;34.78;;;9.80;;
49241;SDS011;35079;52.704;13.814;2024-02-21T00:16:42;31.88;;;11.18;;
49241;SDS011;35079;52.704;13.814;2024-02-21T00:19:08;31.65;;;10.40;;
49241;SDS011;35079;52.704;13.814;2024-02-21T00:21:33;28.30;;;9.50;;
49241;SDS011;35079;52.704;13.814;2024-02-21T00:23:59;28.52;;;9.98;;
49241;SDS011;35079;52.704;13.814;2024-02-21T00:26:26;30.15;;;11.32;;
49241;SDS011;35079;52.704;13.814;2024-02-21T00:28:51;23.10;;;10.00;;
49241;SDS011;35079;52.704;13.814;2024-02-21T00:31:18;25.25;;;9.40;;
49241;SDS011;35079;52.704;13.814;2024-02-21T00:33:43;31.20;;;10.70;;
49241;SDS011;35079;52.704;13.814;2024-02-21T00:36:09;36.53;;;10.45;;
49241;SDS011;35079;52.704;13.814;2024-02-21T00:38:34;32.10;;;10.02;;
49241;SDS011;35079;52.704;13.814;2024-02-21T00:41:00;24.58;;;10.05;;
49241;SDS011;35079;52.704;13.814;2024-02-21T00:43:26;27.75;;;9.18;;
49241;SDS011;35079;52.704;13.814;2024-02-21T00:45:51;27.90;;;9.65;;
49241;SDS011;35079;52.704;13.814;2024-02-21T00:48:17;28.67;;;10.05;;
49241;SDS011;35079;52.704;13.814;2024-02-21T00:50:42;18.00;;;7.78;;
49241;SDS011;35079;52.704;13.814;2024-02-21T00:53:08;29.58;;;9.32;;
49241;SDS011;35079;52.704;13.814;2024-02-21T00:55:35;30.00;;;9.75;;
49241;SDS011;35079;52.704;13.814;2024-02-21T00:58:00;25.60;;;8.63;;
49241;SDS011;35079;52.704;13.814;2024-02-21T01:00:26;26.10;;;8.68;;
49241;SDS011;35079;52.704;13.814;2024-02-21T01:02:52;27.08;;;9.52;;
49241;SDS011;35079;52.704;13.814;2024-02-21T01:05:17;23.27;;;7.80;;
49241;SDS011;35079;52.704;13.814;2024-02-21T01:07:44;25.50;;;8.70;;
49241;SDS011;35079;52.704;13.814;2024-02-21T01:10:09;23.55;;;7.90;;
49241;SDS011;35079;52.704;13.814;2024-02-21T01:12:35;27.67;;;8.35;;
49241;SDS011;35079;52.704;13.814;2024-02-21T01:15:01;24.08;;;7.20;;
49241;SDS011;35079;52.704;13.814;2024-02-21T01:17:27;21.90;;;7.43;;
49241;SDS011;35079;52.704;13.814;2024-02-21T01:19:53;23.20;;;7.65;;
49241;SDS011;35079;52.704;13.814;2024-02-21T01:22:18;24.27;;;8.18;;
49241;SDS011;35079;52.704;13.814;2024-02-21T01:24:44;31.35;;;8.35;;
49241;SDS011;35079;52.704;13.814;2024-02-21T01:27:10;23.45;;;7.55;;
49241;SDS011;35079;52.704;13.814;2024-02-21T01:29:35;22.83;;;6.93;;
49241;SDS011;35079;52.704;13.814;2024-02-21T01:32:01;20.42;;;7.53;;
49241;SDS011;35079;52.704;13.814;2024-02-21T01:34:27;24.17;;;7.38;;
49241;SDS011;35079;52.704;13.814;2024-02-21T01:36:52;21.55;;;7.25;;
49241;SDS011;35079;52.704;13.814;2024-02-21T01:39:18;28.70;;;8.50;;
49241;SDS011;35079;52.704;13.814;2024-02-21T01:41:43;21.80;;;6.88;;
49241;SDS011;35079;52.704;13.814;2024-02-21T01:44:09;25.67;;;7.55;;
49241;SDS011;35079;52.704;13.814;2024-02-21T01:46:35;20.95;;;6.88;;
49241;SDS011;35079;52.704;13.814;2024-02-21T01:49:01;20.88;;;6.85;;
49241;SDS011;35079;52.704;13.814;2024-02-21T01:51:27;27.98;;;7.35;;
49241;SDS011;35079;52.704;13.814;2024-02-21T01:53:53;26.85;;;7.75;;
49241;SDS011;35079;52.704;13.814;2024-02-21T01:56:21;17.80;;;6.78;;
49241;SDS011;35079;52.704;13.814;2024-02-21T01:58:47;23.58;;;7.32;;
49241;SDS011;35079;52.704;13.814;2024-02-21T02:01:14;24.70;;;7.10;;
49241;SDS011;35079;52.704;13.814;2024-02-21T02:03:39;18.15;;;5.57;;
49241;SDS011;35079;52.704;13.814;2024-02-21T02:06:05;18.38;;;6.57;;
49241;SDS011;35079;52.704;13.814;2024-02-21T02:08:34;19.13;;;6.15;;
49241;SDS011;35079;52.704;13.814;2024-02-21T02:11:00;22.90;;;6.15;;
49241;SDS011;35079;52.704;13.814;2024-02-21T02:13:26;24.92;;;6.45;;
49241;SDS011;35079;52.704;13.814;2024-02-21T02:15:52;20.08;;;6.10;;
49241;SDS011;35079;52.704;13.814;2024-02-21T02:18:19;23.58;;;6.70;;
49241;SDS011;35079;52.704;13.814;2024-02-21T02:20:45;16.08;;;5.65;;
49241;SDS011;35079;52.704;13.814;2024-02-21T02:25:48;12.85;;;5.28;;
49241;SDS011;35079;52.704;13.814;2024-02-21T02:28:17;20.20;;;5.28;;
49241;SDS011;35079;52.704;13.814;2024-02-21T02:30:42;18.48;;;5.80;;
49241;SDS011;35079;52.704;13.814;2024-02-21T02:33:08;18.30;;;5.30;;
49241;SDS011;35079;52.704;13.814;2024-02-21T02:35:34;18.10;;;6.07;;
49241;SDS011;35079;52.704;13.814;2024-02-21T02:38:01;17.00;;;5.15;;
49241;SDS011;35079;52.704;13.814;2024-02-21T02:40:28;14.25;;;4.25;;
49241;SDS011;35079;52.704;13.814;2024-02-21T02:42:53;24.77;;;5.40;;
49241;SDS011;35079;52.704;13.814;2024-02-21T02:45:22;17.10;;;4.90;;
49241;SDS011;35079;52.704;13.814;2024-02-21T02:47:49;18.08;;;5.35;;
49241;SDS011;35079;52.704;13.814;2024-02-21T02:50:15;16.02;;;5.03;;
49241;SDS011;35079;52.704;13.814;2024-02-21T02:52:40;21.80;;;5.70;;
49241;SDS011;35079;52.704;13.814;2024-02-21T02:55:06;22.08;;;5.63;;
49241;SDS011;35079;52.704;13.814;2024-02-21T02:57:32;19.92;;;5.10;;
49241;SDS011;35079;52.704;13.814;2024-02-21T02:59:58;16.17;;;4.55;;
49241;SDS011;35079;52.704;13.814;2024-02-21T03:02:23;16.25;;;4.97;;
49241;SDS011;35079;52.704;13.814;2024-02-21T03:04:49;18.20;;;5.00;;
49241;SDS011;35079;52.704;13.814;2024-02-21T03:07:15;15.35;;;5.38;;
49241;SDS011;35079;52.704;13.814;2024-02-21T03:09:41;18.52;;;5.30;;
49241;SDS011;35079;52.704;13.814;2024-02-21T03:12:07;19.15;;;5.47;;
49241;SDS011;35079;52.704;13.814;2024-02-21T03:14:33;19.15;;;5.22;;
49241;SDS011;35079;52.704;13.814;2024-02-21T03:16:59;15.65;;;5.10;;
49241;SDS011;35079;52.704;13.814;2024-02-21T03:19:25;17.50;;;5.97;;
49241;SDS011;35079;52.704;13.814;2024-02-21T03:21:51;15.70;;;4.55;;
49241;SDS011;35079;52.704;13.814;2024-02-21T03:24:18;21.63;;;5.53;;
49241;SDS011;35079;52.704;13.814;2024-02-21T03:26:44;23.40;;;6.38;;
49241;SDS011;35079;52.704;13.814;2024-02-21T03:29:10;25.52;;;5.72;;
49241;SDS011;35079;52.704;13.814;2024-02-21T03:31:36;16.88;;;5.60;;
49241;SDS011;35079;52.704;13.814;2024-02-21T03:34:02;19.23;;;5.53;;
49241;SDS011;35079;52.704;13.814;2024-02-21T03:36:28;17.33;;;6.20;;
49241;SDS011;35079;52.704;13.814;2024-02-21T03:38:54;22.48;;;6.03;;
49241;SDS011;35079;52.704;13.814;2024-02-21T03:41:20;20.55;;;6.07;;
49241;SDS011;35079;52.704;13.814;2024-02-21T03:43:46;20.73;;;5.63;;
49241;SDS011;35079;52.704;13.814;2024-02-21T03:46:11;17.90;;;5.93;;
49241;SDS011;35079;52.704;13.814;2024-02-21T03:48:37;22.80;;;6.30;;
49241;SDS011;35079;52.704;13.814;2024-02-21T03:51:02;22.98;;;7.30;;
49241;SDS011;35079;52.704;13.814;2024-02-21T03:53:28;19.77;;;6.88;;
49241;SDS011;35079;52.704;13.814;2024-02-21T03:55:55;23.77;;;7.70;;
49241;SDS011;35079;52.704;13.814;2024-02-21T03:58:21;19.63;;;6.90;;
49241;SDS011;35079;52.704;13.814;2024-02-21T04:00:47;19.08;;;6.60;;
49241;SDS011;35079;52.704;13.814;2024-02-21T04:03:13;18.65;;;6.93;;
49241;SDS011;35079;52.704;13.814;2024-02-21T04:05:38;17.92;;;7.43;;
49241;SDS011;35079;52.704;13.814;2024-02-21T04:08:04;16.55;;;6.97;;
49241;SDS011;35079;52.704;13.814;2024-02-21T04:10:30;21.95;;;7.88;;
49241;SDS011;35079;52.704;13.814;2024-02-21T04:12:56;19.45;;;7.13;;
49241;SDS011;35079;52.704;13.814;2024-02-21T04:15:22;19.08;;;7.72;;
49241;SDS011;35079;52.704;13.814;2024-02-21T04:17:47;16.73;;;7.28;;
49241;SDS011;35079;52.704;13.814;2024-02-21T04:20:15;17.80;;;7.00;;
49241;SDS011;35079;52.704;13.814;2024-02-21T04:22:44;24.48;;;7.13;;
49241;SDS011;35079;52.704;13.814;2024-02-21T04:25:10;18.85;;;7.55;;
49241;SDS011;35079;52.704;13.814;2024-02-21T04:27:37;25.08;;;8.52;;
49241;SDS011;35079;52.704;13.814;2024-02-21T04:30:04;21.95;;;8.02;;
49241;SDS011;35079;52.704;13.814;2024-02-21T04:32:31;20.83;;;7.82;;
49241;SDS011;35079;52.704;13.814;2024-02-21T04:34:57;19.77;;;8.57;;
49241;SDS011;35079;52.704;13.814;2024-02-21T04:37:22;21.17;;;8.80;;
49241;SDS011;35079;52.704;13.814;2024-02-21T04:39:48;22.95;;;9.05;;
49241;SDS011;35079;52.704;13.814;2024-02-21T04:42:14;22.63;;;9.27;;
49241;SDS011;35079;52.704;13.814;2024-02-21T04:44:40;23.50;;;8.65;;
49241;SDS011;35079;52.704;13.814;2024-02-21T04:47:06;19.88;;;8.45;;
49241;SDS011;35079;52.704;13.814;2024-02-21T04:49:32;20.63;;;9.35;;
49241;SDS011;35079;52.704;13.814;2024-02-21T04:51:58;23.38;;;9.82;;
49241;SDS011;35079;52.704;13.814;2024-02-21T04:54:24;21.55;;;9.20;;
49241;SDS011;35079;52.704;13.814;2024-02-21T04:56:50;20.42;;;8.98;;
49241;SDS011;35079;52.704;13.814;2024-02-21T04:59:16;22.02;;;9.85;;
49241;SDS011;35079;52.704;13.814;2024-02-21T05:01:42;25.35;;;9.27;;
49241;SDS011;35079;52.704;13.814;2024-02-21T05:04:08;25.02;;;10.52;;
49241;SDS011;35079;52.704;13.814;2024-02-21T05:06:41;28.20;;;9.95;;
49241;SDS011;35079;52.704;13.814;2024-02-21T05:09:07;25.77;;;10.15;;
49241;SDS011;35079;52.704;13.814;2024-02-21T05:11:33;22.63;;;9.90;;
49241;SDS011;35079;52.704;13.814;2024-02-21T05:14:05;21.08;;;9.90;;
49241;SDS011;35079;52.704;13.814;2024-02-21T05:16:33;17.63;;;9.57;;
49241;SDS011;35079;52.704;13.814;2024-02-21T05:18:59;24.52;;;9.57;;
49241;SDS011;35079;52.704;13.814;2024-02-21T05:21:25;25.33;;;9.63;;
49241;SDS011;35079;52.704;13.814;2024-02-21T05:23:52;20.92;;;9.05;;
49241;SDS011;35079;52.704;13.814;2024-02-21T05:26:21;19.52;;;9.05;;
49241;SDS011;35079;52.704;13.814;2024-02-21T05:28:50;22.30;;;9.63;;
49241;SDS011;35079;52.704;13.814;2024-02-21T05:31:17;25.63;;;9.70;;
49241;SDS011;35079;52.704;13.814;2024-02-21T05:33:44;31.52;;;9.73;;
49241;SDS011;35079;52.704;13.814;2024-02-21T05:36:10;21.98;;;9.45;;
49241;SDS011;35079;52.704;13.814;2024-02-21T05:38:36;23.02;;;10.98;;
49241;SDS011;35079;52.704;13.814;2024-02-21T05:41:02;25.20;;;10.13;;
49241;SDS011;35079;52.704;13.814;2024-02-21T05:43:28;21.75;;;9.98;;
49241;SDS011;35079;52.704;13.814;2024-02-21T05:45:54;25.27;;;9.68;;
49241;SDS011;35079;52.704;13.814;2024-02-21T05:48:20;25.30;;;9.70;;
49241;SDS011;35079;52.704;13.814;2024-02-21T05:50:47;21.15;;;9.10;;
49241;SDS011;35079;52.704;13.814;2024-02-21T05:53:12;22.23;;;9.15;;
49241;SDS011;35079;52.704;13.814;2024-02-21T05:55:38;29.52;;;9.60;;
49241;SDS011;35079;52.704;13.814;2024-02-21T05:58:04;29.83;;;10.52;;
49241;SDS011;35079;52.704;13.814;2024-02-21T06:00:31;23.60;;;9.68;;
49241;SDS011;35079;52.704;13.814;2024-02-21T06:02:57;32.30;;;11.07;;
49241;SDS011;35079;52.704;13.814;2024-02-21T06:05:22;21.20;;;9.43;;
49241;SDS011;35079;52.704;13.814;2024-02-21T06:07:48;24.15;;;10.23;;
49241;SDS011;35079;52.704;13.814;2024-02-21T06:10:14;23.55;;;9.60;;
49241;SDS011;35079;52.704;13.814;2024-02-21T06:12:40;25.45;;;9.55;;
49241;SDS011;35079;52.704;13.814;2024-02-21T06:15:06;21.15;;;9.70;;
49241;SDS011;35079;52.704;13.814;2024-02-21T06:17:32;23.00;;;9.23;;
49241;SDS011;35079;52.704;13.814;2024-02-21T06:19:57;34.28;;;10.85;;
49241;SDS011;35079;52.704;13.814;2024-02-21T06:22:23;22.70;;;10.40;;
49241;SDS011;35079;52.704;13.814;2024-02-21T06:24:48;27.52;;;10.82;;
49241;SDS011;35079;52.704;13.814;2024-02-21T06:27:15;26.13;;;10.23;;
49241;SDS011;35079;52.704;13.814;2024-02-21T06:29:42;24.60;;;10.27;;
49241;SDS011;35079;52.704;13.814;2024-02-21T06:32:08;28.73;;;10.50;;
49241;SDS011;35079;52.704;13.814;2024-02-21T06:34:34;32.05;;;10.70;;
49241;SDS011;35079;52.704;13.814;2024-02-21T06:36:59;28.48;;;10.75;;
49241;SDS011;35079;52.704;13.814;2024-02-21T06:39:25;28.35;;;10.48;;
49241;SDS011;35079;52.704;13.814;2024-02-21T06:41:50;21.77;;;10.55;;
49241;SDS011;35079;52.704;13.814;2024-02-21T06:44:17;26.10;;;10.10;;
49241;SDS011;35079;52.704;13.814;2024-02-21T06:46:43;25.10;;;9.88;;
49241;SDS011;35079;52.704;13.814;2024-02-21T06:49:09;27.35;;;10.50;;
49241;SDS011;35079;52.704;13.814;2024-02-21T06:51:40;21.10;;;9.98;;
49241;SDS011;35079;52.704;13.814;2024-02-21T06:54:09;25.73;;;10.88;;
49241;SDS011;35079;52.704;13.814;2024-02-21T06:56:35;29.33;;;11.10;;
49241;SDS011;35079;52.704;13.814;2024-02-21T06:59:02;25.25;;;10.25;;
49241;SDS011;35079;52.704;13.814;2024-02-21T07:01:30;22.65;;;10.02;;
49241;SDS011;35079;52.704;13.814;2024-02-21T07:03:56;24.08;;;10.00;;
49241;SDS011;35079;52.704;13.814;2024-02-21T07:06:22;26.38;;;10.60;;
49241;SDS011;35079;52.704;13.814;2024-02-21T07:08:48;23.95;;;9.88;;
49241;SDS011;35079;52.704;13.814;2024-02-21T07:11:13;24.90;;;9.48;;
49241;SDS011;35079;52.704;13.814;2024-02-21T07:13:39;24.80;;;10.52;;
49241;SDS011;35079;52.704;13.814;2024-02-21T07:16:05;26.55;;;10.45;;
49241;SDS011;35079;52.704;13.814;2024-02-21T07:18:32;27.08;;;9.45;;
49241;SDS011;35079;52.704;13.814;2024-02-21T07:20:57;22.48;;;10.52;;
49241;SDS011;35079;52.704;13.814;2024-02-21T07:23:23;23.45;;;10.13;;
49241;SDS011;35079;52.704;13.814;2024-02-21T07:25:49;25.23;;;10.15;;
49241;SDS011;35079;52.704;13.814;2024-02-21T07:28:15;23.00;;;10.15;;
49241;SDS011;35079;52.704;13.814;2024-02-21T07:30:41;27.40;;;10.55;;
49241;SDS011;35079;52.704;13.814;2024-02-21T07:33:07;24.80;;;10.45;;
49241;SDS011;35079;52.704;13.814;2024-02-21T07:35:33;21.10;;;10.10;;
49241;SDS011;35079;52.704;13.814;2024-02-21T07:37:59;21.30;;;10.38;;
49241;SDS011;35079;52.704;13.814;2024-02-21T07:40:24;28.90;;;11.35;;
49241;SDS011;35079;52.704;13.814;2024-02-21T07:42:50;25.67;;;10.73;;
49241;SDS011;35079;52.704;13.814;2024-02-21T07:45:15;22.60;;;10.30;;
49241;SDS011;35079;52.704;13.814;2024-02-21T07:47:41;27.58;;;11.75;;
49241;SDS011;35079;52.704;13.814;2024-02-21T07:50:07;27.55;;;11.55;;
49241;SDS011;35079;52.704;13.814;2024-02-21T07:52:33;31.05;;;12.15;;
49241;SDS011;35079;52.704;13.814;2024-02-21T07:54:59;21.92;;;10.57;;
49241;SDS011;35079;52.704;13.814;2024-02-21T07:57:24;30.73;;;11.60;;
49241;SDS011;35079;52.704;13.814;2024-02-21T07:59:50;25.85;;;10.95;;
49241;SDS011;35079;52.704;13.814;2024-02-21T08:02:16;23.67;;;10.75;;
49241;SDS011;35079;52.704;13.814;2024-02-21T08:04:42;24.60;;;11.57;;
49241;SDS011;35079;52.704;13.814;2024-02-21T08:07:08;25.90;;;10.48;;
49241;SDS011;35079;52.704;13.814;2024-02-21T08:09:34;21.98;;;10.15;;
49241;SDS011;35079;52.704;13.814;2024-02-21T08:12:01;27.58;;;11.70;;
49241;SDS011;35079;52.704;13.814;2024-02-21T08:14:27;23.23;;;11.60;;
49241;SDS011;35079;52.704;13.814;2024-02-21T08:16:52;23.73;;;11.43;;
49241;SDS011;35079;52.704;13.814;2024-02-21T08:19:19;23.98;;;11.10;;
49241;SDS011;35079;52.704;13.814;2024-02-21T08:21:45;22.65;;;11.43;;
49241;SDS011;35079;52.704;13.814;2024-02-21T08:24:13;23.60;;;11.75;;
49241;SDS011;35079;52.704;13.814;2024-02-21T08:26:43;28.52;;;12.48;;
49241;SDS011;35079;52.704;13.814;2024-02-21T08:29:12;20.70;;;10.98;;
49241;SDS011;35079;52.704;13.814;2024-02-21T08:31:38;23.35;;;10.60;;
49241;SDS011;35079;52.704;13.814;2024-02-21T08:34:04;21.73;;;10.95;;
49241;SDS011;35079;52.704;13.814;2024-02-21T08:36:30;27.02;;;11.25;;
49241;SDS011;35079;52.704;13.814;2024-02-21T08:38:56;25.67;;;10.80;;
49241;SDS011;35079;52.704;13.814;2024-02-21T08:41:23;21.10;;;10.75;;
49241;SDS011;35079;52.704;13.814;2024-02-21T08:43:50;25.90;;;10.98;;
49241;SDS011;35079;52.704;13.814;2024-02-21T08:46:17;21.92;;;10.27;;
49241;SDS011;35079;52.704;13.814;2024-02-21T08:48:43;20.42;;;10.90;;
49241;SDS011;35079;52.704;13.814;2024-02-21T08:51:11;21.30;;;10.20;;
49241;SDS011;35079;52.704;13.814;2024-02-21T08:53:37;26.52;;;10.85;;
49241;SDS011;35079;52.704;13.814;2024-02-21T08:56:03;26.63;;;10.68;;
49241;SDS011;35079;52.704;13.814;2024-02-21T08:58:29;25.65;;;11.07;;
49241;SDS011;35079;52.704;13.814;2024-02-21T09:00:54;18.83;;;10.25;;
49241;SDS011;35079;52.704;13.814;2024-02-21T09:03:20;23.75;;;10.27;;
49241;SDS011;35079;52.704;13.814;2024-02-21T09:05:46;23.63;;;10.88;;
49241;SDS011;35079;52.704;13.814;2024-02-21T09:08:12;25.15;;;10.50;;
49241;SDS011;35079;52.704;13.814;2024-02-21T09:10:39;19.75;;;9.85;;
49241;SDS011;35079;52.704;13.814;2024-02-21T09:13:05;19.35;;;10.68;;
49241;SDS011;35079;52.704;13.814;2024-02-21T09:15:32;23.02;;;10.88;;
49241;SDS011;35079;52.704;13.814;2024-02-21T09:17:58;22.70;;;10.80;;
49241;SDS011;35079;52.704;13.814;2024-02-21T09:20:23;27.15;;;10.82;;
49241;SDS011;35079;52.704;13.814;2024-02-21T09:22:49;25.08;;;10.80;;
49241;SDS011;35079;52.704;13.814;2024-02-21T09:25:15;23.05;;;10.73;;
49241;SDS011;35079;52.704;13.814;2024-02-21T09:27:44;21.08;;;10.05;;
49241;SDS011;35079;52.704;13.814;2024-02-21T09:30:10;22.67;;;10.02;;
49241;SDS011;35079;52.704;13.814;2024-02-21T09:32:37;23.98;;;10.50;;
49241;SDS011;35079;52.704;13.814;2024-02-21T09:35:03;22.98;;;10.52;;
49241;SDS011;35079;52.704;13.814;2024-02-21T09:37:50;19.40;;;10.32;;
49241;SDS011;35079;52.704;13.814;2024-02-21T09:40:19;25.45;;;11.02;;
49241;SDS011;35079;52.704;13.814;2024-02-21T09:42:50;24.63;;;10.63;;
49241;SDS011;35079;52.704;13.814;2024-02-21T09:45:32;16.65;;;9.55;;
49241;SDS011;35079;52.704;13.814;2024-02-21T10:00:44;21.65;;;10.60;;
49241;SDS011;35079;52.704;13.814;2024-02-21T10:21:25;18.65;;;11.13;;
49241;SDS011;35079;52.704;13.814;2024-02-21T10:24:06;17.33;;;10.13;;
49241;SDS011;35079;52.704;13.814;2024-02-21T10:31:49;15.55;;;9.73;;
49241;SDS011;35079;52.704;13.814;2024-02-21T10:35:03;21.27;;;11.02;;
49241;SDS011;35079;52.704;13.814;2024-02-21T10:37:33;20.00;;;10.52;;
49241;SDS011;35079;52.704;13.814;2024-02-21T10:40:00;19.90;;;10.38;;
49241;SDS011;35079;52.704;13.814;2024-02-21T10:42:28;15.65;;;9.60;;
49241;SDS011;35079;52.704;13.814;2024-02-21T10:45:00;19.65;;;10.38;;
49241;SDS011;35079;52.704;13.814;2024-02-21T10:47:29;18.13;;;10.25;;
49241;SDS011;35079;52.704;13.814;2024-02-21T10:49:57;15.93;;;9.88;;
49241;SDS011;35079;52.704;13.814;2024-02-21T10:55:26;18.73;;;10.48;;
49241;SDS011;35079;52.704;13.814;2024-02-21T10:58:06;18.13;;;10.07;;
49241;SDS011;35079;52.704;13.814;2024-02-21T11:00:32;17.65;;;10.10;;
49241;SDS011;35079;52.704;13.814;2024-02-21T11:02:59;22.52;;;10.65;;
49241;SDS011;35079;52.704;13.814;2024-02-21T11:05:25;20.20;;;9.68;;
49241;SDS011;35079;52.704;13.814;2024-02-21T11:07:53;15.98;;;10.05;;
49241;SDS011;35079;52.704;13.814;2024-02-21T11:10:22;18.85;;;10.30;;
49241;SDS011;35079;52.704;13.814;2024-02-21T11:12:52;17.55;;;9.30;;
49241;SDS011;35079;52.704;13.814;2024-02-21T11:15:28;21.30;;;10.00;;
49241;SDS011;35079;52.704;13.814;2024-02-21T11:17:59;16.00;;;8.57;;
49241;SDS011;35079;52.704;13.814;2024-02-21T11:24:08;16.77;;;8.57;;
49241;SDS011;35079;52.704;13.814;2024-02-21T11:27:23;18.38;;;9.27;;
49241;SDS011;35079;52.704;13.814;2024-02-21T11:29:56;17.23;;;8.88;;
49241;SDS011;35079;52.704;13.814;2024-02-21T11:32:41;14.63;;;8.82;;
49241;SDS011;35079;52.704;13.814;2024-02-21T11:35:19;14.45;;;8.02;;
49241;SDS011;35079;52.704;13.814;2024-02-21T11:38:22;14.35;;;8.50;;
49241;SDS011;35079;52.704;13.814;2024-02-21T11:40:50;15.65;;;8.18;;
49241;SDS011;35079;52.704;13.814;2024-02-21T11:43:34;12.93;;;8.30;;
49241;SDS011;35079;52.704;13.814;2024-02-21T11:46:54;16.85;;;8.18;;
49241;SDS011;35079;52.704;13.814;2024-02-21T11:49:44;15.93;;;7.35;;
49241;SDS011;35079;52.704;13.814;2024-02-21T11:52:28;12.98;;;7.60;;
49241;SDS011;35079;52.704;13.814;2024-02-21T11:54:54;12.07;;;7.45;;
49241;SDS011;35079;52.704;13.814;2024-02-21T11:57:22;10.77;;;6.88;;
49241;SDS011;35079;52.704;13.814;2024-02-21T11:59:48;12.43;;;7.13;;
49241;SDS011;35079;52.704;13.814;2024-02-21T12:02:17;12.50;;;6.38;;
49241;SDS011;35079;52.704;13.814;2024-02-21T12:04:43;10.98;;;6.53;;
49241;SDS011;35079;52.704;13.814;2024-02-21T12:07:09;10.38;;;6.65;;
49241;SDS011;35079;52.704;13.814;2024-02-21T12:09:35;13.25;;;5.97;;
49241;SDS011;35079;52.704;13.814;2024-02-21T12:12:01;12.13;;;6.55;;
49241;SDS011;35079;52.704;13.814;2024-02-21T12:14:28;9.88;;;5.65;;
49241;SDS011;35079;52.704;13.814;2024-02-21T12:16:55;9.48;;;4.85;;
49241;SDS011;35079;52.704;13.814;2024-02-21T12:19:21;10.68;;;5.43;;
49241;SDS011;35079;52.704;13.814;2024-02-21T12:21:47;7.57;;;5.32;;
49241;SDS011;35079;52.704;13.814;2024-02-21T12:24:21;11.90;;;4.68;;
49241;SDS011;35079;52.704;13.814;2024-02-21T12:26:51;8.32;;;4.38;;
49241;SDS011;35079;52.704;13.814;2024-02-21T12:29:20;8.25;;;5.03;;
49241;SDS011;35079;52.704;13.814;2024-02-21T12:31:46;10.50;;;4.93;;
49241;SDS011;35079;52.704;13.814;2024-02-21T12:34:13;9.50;;;4.90;;
49241;SDS011;35079;52.704;13.814;2024-02-21T12:36:41;9.05;;;5.30;;
49241;SDS011;35079;52.704;13.814;2024-02-21T12:39:13;9.27;;;5.07;;
49241;SDS011;35079;52.704;13.814;2024-02-21T12:41:39;9.02;;;5.10;;
49241;SDS011;35079;52.704;13.814;2024-02-21T12:44:06;6.72;;;4.50;;
49241;SDS011;35079;52.704;13.814;2024-02-21T12:46:35;9.90;;;4.50;;
49241;SDS011;35079;52.704;13.814;2024-02-21T12:49:01;7.43;;;3.88;;
49241;SDS011;35079;52.704;13.814;2024-02-21T12:51:28;9.15;;;4.97;;
49241;SDS011;35079;52.704;13.814;2024-02-21T12:53:54;6.00;;;4.30;;
49241;SDS011;35079;52.704;13.814;2024-02-21T12:56:20;7.57;;;5.30;;
49241;SDS011;35079;52.704;13.814;2024-02-21T12:58:45;8.07;;;4.63;;
49241;SDS011;35079;52.704;13.814;2024-02-21T13:01:11;6.75;;;4.60;;
49241;SDS011;35079;52.704;13.814;2024-02-21T13:03:37;8.55;;;4.60;;
49241;SDS011;35079;52.704;13.814;2024-02-21T13:06:03;7.03;;;4.40;;
49241;SDS011;35079;52.704;13.814;2024-02-21T13:08:29;9.32;;;4.22;;
49241;SDS011;35079;52.704;13.814;2024-02-21T13:10:55;8.32;;;3.80;;
49241;SDS011;35079;52.704;13.814;2024-02-21T13:13:20;6.75;;;3.60;;
49241;SDS011;35079;52.704;13.814;2024-02-21T13:15:46;6.20;;;2.92;;
49241;SDS011;35079;52.704;13.814;2024-02-21T13:18:12;6.85;;;2.83;;
49241;SDS011;35079;52.704;13.814;2024-02-21T13:20:37;7.10;;;2.75;;
49241;SDS011;35079;52.704;13.814;2024-02-21T13:23:03;3.60;;;2.40;;
49241;SDS011;35079;52.704;13.814;2024-02-21T13:25:29;6.07;;;3.00;;
49241;SDS011;35079;52.704;13.814;2024-02-21T13:27:55;4.30;;;2.70;;
49241;SDS011;35079;52.704;13.814;2024-02-21T13:30:21;4.75;;;3.10;;
49241;SDS011;35079;52.704;13.814;2024-02-21T13:32:47;7.07;;;3.05;;
49241;SDS011;35079;52.704;13.814;2024-02-21T13:35:13;5.72;;;2.70;;
49241;SDS011;35079;52.704;13.814;2024-02-21T13:37:40;5.75;;;2.85;;
49241;SDS011;35079;52.704;13.814;2024-02-21T13:40:07;6.40;;;2.85;;
49241;SDS011;35079;52.704;13.814;2024-02-21T13:42:36;4.22;;;2.75;;
49241;SDS011;35079;52.704;13.814;2024-02-21T13:45:03;5.63;;;2.50;;
49241;SDS011;35079;52.704;13.814;2024-02-21T13:47:30;4.93;;;2.55;;
49241;SDS011;35079;52.704;13.814;2024-02-21T13:49:56;5.97;;;2.55;;
49241;SDS011;35079;52.704;13.814;2024-02-21T13:52:22;5.25;;;2.60;;
49241;SDS011;35079;52.704;13.814;2024-02-21T13:54:51;4.70;;;2.30;;
49241;SDS011;35079;52.704;13.814;2024-02-21T13:57:17;4.63;;;2.70;;
49241;SDS011;35079;52.704;13.814;2024-02-21T13:59:43;5.13;;;3.05;;
49241;SDS011;35079;52.704;13.814;2024-02-21T14:02:08;4.18;;;2.63;;
49241;SDS011;35079;52.704;13.814;2024-02-21T14:04:34;5.38;;;2.70;;
49241;SDS011;35079;52.704;13.814;2024-02-21T14:07:00;5.25;;;2.88;;
49241;SDS011;35079;52.704;13.814;2024-02-21T14:09:27;4.47;;;2.42;;
49241;SDS011;35079;52.704;13.814;2024-02-21T14:11:54;3.03;;;2.30;;
49241;SDS011;35079;52.704;13.814;2024-02-21T14:14:20;6.13;;;2.90;;
49241;SDS011;35079;52.704;13.814;2024-02-21T14:16:46;5.95;;;2.45;;
49241;SDS011;35079;52.704;13.814;2024-02-21T14:19:15;6.60;;;2.55;;
49241;SDS011;35079;52.704;13.814;2024-02-21T14:21:40;3.60;;;2.35;;
49241;SDS011;35079;52.704;13.814;2024-02-21T14:24:06;4.97;;;2.88;;
49241;SDS011;35079;52.704;13.814;2024-02-21T14:26:32;3.35;;;2.50;;
49241;SDS011;35079;52.704;13.814;2024-02-21T14:28:58;4.68;;;2.47;;
49241;SDS011;35079;52.704;13.814;2024-02-21T14:31:24;5.28;;;2.90;;
49241;SDS011;35079;52.704;13.814;2024-02-21T14:33:50;5.10;;;2.60;;
49241;SDS011;35079;52.704;13.814;2024-02-21T14:36:17;5.82;;;2.58;;
49241;SDS011;35079;52.704;13.814;2024-02-21T14:38:43;5.22;;;2.72;;
49241;SDS011;35079;52.704;13.814;2024-02-21T14:41:10;6.13;;;2.95;;
49241;SDS011;35079;52.704;13.814;2024-02-21T14:43:38;5.97;;;3.35;;
49241;SDS011;35079;52.704;13.814;2024-02-21T14:46:04;4.82;;;2.90;;
49241;SDS011;35079;52.704;13.814;2024-02-21T14:48:30;6.00;;;3.20;;
49241;SDS011;35079;52.704;13.814;2024-02-21T14:50:57;5.22;;;3.40;;
49241;SDS011;35079;52.704;13.814;2024-02-21T14:53:24;5.53;;;3.65;;
49241;SDS011;35079;52.704;13.814;2024-02-21T14:55:50;5.55;;;3.53;;
49241;SDS011;35079;52.704;13.814;2024-02-21T14:58:19;6.63;;;3.40;;
49241;SDS011;35079;52.704;13.814;2024-02-21T15:00:45;7.63;;;4.00;;
49241;SDS011;35079;52.704;13.814;2024-02-21T15:03:11;5.82;;;3.78;;
49241;SDS011;35079;52.704;13.814;2024-02-21T15:05:41;7.38;;;4.18;;
49241;SDS011;35079;52.704;13.814;2024-02-21T15:08:07;10.23;;;4.78;;